Airfield :
LOGIN :

Register | Disclaimer

   EN    FR    IT 

 










Legend :    VFR   Marginal VFR   IFR   Intensive IFR   Very Intensive IFR
Visi :
Ceiling :
>= 8 km
>= 3000ft
5 to 8 km
1000 to 3000 ft
1500m to 5 km
500 to 1000 ft
800 to 1500m
200 to 500 ft
< 800m
< 200 ft
Symbols :   Thunderstorms  Fog  Heavy snow  Heavy precipitations  Wind > 20 kt
SIGMETs :     Misc.  Thunderstorms  Icing  Turbulence  Mountain Waves  Volcanic Ashes






- Airport Elevation : 233 ft
- IATA code : REU


LERS - Reus Tarragona

CURRENT METAR :
  • 220130Z AUTO 02006KT 9999 FEW035 10/08 Q1016

EXPIRED METARs :
  • 220100Z AUTO 01005KT 9999 FEW036 10/08 Q1016
  • 220030Z AUTO 02004KT 350V060 9999 SCT036 10/08 Q1016
  • 220000Z AUTO 02005KT 9999 FEW047 10/09 Q1016
  • 212330Z AUTO 01002KT 9999 FEW047 11/08 Q1016
  • 212300Z AUTO VRB01KT CAVOK 12/09 Q1016

TAF TAF LERS
Valid from the 21 at 21:00 until the 22 at 21:00 UTC


212000Z 2121/2221 02005KT 9999 SCT018 TX17/2212Z TN08/2205Z
TEMPO 2210/2218 11010KT
PROB40
TEMPO 2204/2215 3000 RA BKN014



MET'MAP, your aeronautical weather chart ! - Copyright ORBIFLY December 2007 - Disclaimer

ORBIFLY MET'MAP TEAM :

Programming & Development : Alexandra Zaïnal
Concept & original design : Baudouin d'Aumeries
Assistance for programming : Marc-Olivier Méhu
Technical & hardware support : Manuel Goepfert

Contact : metmap@orbifly.com




SOURCES & CREDITS :

   NOAA